Time;durP1;ratioP1;P1;durP2;ratioP2;P2;SDS_P1;SDS_P2;PMS_P1;PMS_P2;Temp;Humidity;BMP_temperature;BMP_pressure;BME280_temperature;BME280_humidity;BME280_pressure;Samples;Min_cycle;Max_cycle;Signal;HPM_P1;HPM_P2
2022/10/13 00:01:18;;;;;;;8.68;5.22;;;9.60;99.90;;;;;;5073174;28;20104;-74
2022/10/13 00:03:47;;;;;;;8.57;5.40;;;9.50;99.90;;;;;;5073115;28;20052;-73
2022/10/13 00:06:16;;;;;;;9.48;5.63;;;9.50;99.90;;;;;;5056612;28;20506;-74
2022/10/13 00:08:42;;;;;;;9.40;5.53;;;9.60;99.90;;;;;;5055713;28;20041;-73
2022/10/13 00:11:14;;;;;;;9.45;4.85;;;9.50;99.90;;;;;;5056827;28;20040;-73
2022/10/13 00:13:40;;;;;;;8.18;5.88;;;9.50;99.90;;;;;;5070079;28;20072;-73
2022/10/13 00:16:06;;;;;;;10.80;5.45;;;9.80;99.90;;;;;;5068324;28;20063;-73
2022/10/13 00:18:32;;;;;;;9.32;5.30;;;9.50;99.90;;;;;;5065500;28;20053;-73
2022/10/13 00:20:58;;;;;;;10.13;5.50;;;9.50;99.90;;;;;;5072656;28;20055;-73
2022/10/13 00:23:24;;;;;;;8.02;5.30;;;9.50;99.90;;;;;;5072381;28;20070;-73
2022/10/13 00:25:50;;;;;;;9.75;5.47;;;9.50;99.90;;;;;;5082372;28;20097;-73
2022/10/13 00:28:18;;;;;;;9.82;5.22;;;9.50;99.90;;;;;;5075444;28;20056;-73
2022/10/13 00:30:45;;;;;;;7.22;5.05;;;9.50;99.90;;;;;;5073025;28;20037;-73
2022/10/13 00:33:12;;;;;;;8.95;5.63;;;9.50;99.90;;;;;;5062249;28;20048;-73
2022/10/13 00:35:48;;;;;;;10.23;5.70;;;9.50;99.90;;;;;;5078383;28;20123;-73
2022/10/13 00:38:15;;;;;;;9.02;5.20;;;9.40;99.90;;;;;;5065621;28;20064;-73
2022/10/13 00:40:54;;;;;;;9.77;5.50;;;9.40;99.90;;;;;;5060184;28;20370;-73
2022/10/13 00:43:26;;;;;;;8.23;5.45;;;9.40;99.90;;;;;;5059789;28;20060;-73
2022/10/13 00:45:53;;;;;;;9.18;5.43;;;9.40;99.90;;;;;;5052325;28;20076;-73
2022/10/13 00:48:28;;;;;;;9.63;5.45;;;9.40;99.90;;;;;;5074943;28;20041;-73
2022/10/13 00:50:56;;;;;;;7.82;5.25;;;9.40;99.90;;;;;;5054400;28;20103;-73
2022/10/13 00:53:25;;;;;;;7.97;5.57;;;9.40;99.90;;;;;;5072228;28;20048;-73
2022/10/13 00:55:52;;;;;;;11.15;5.60;;;9.40;99.90;;;;;;5072097;28;20079;-73
2022/10/13 00:58:20;;;;;;;10.65;5.35;;;9.40;99.90;;;;;;5066920;28;20498;-73
2022/10/13 01:00:48;;;;;;;10.70;5.78;;;9.40;99.90;;;;;;5064546;28;20068;-73
2022/10/13 01:03:14;;;;;;;10.30;6.47;;;9.40;99.90;;;;;;5059442;28;20052;-73
2022/10/13 01:05:41;;;;;;;11.10;5.93;;;9.50;99.90;;;;;;5049263;28;20040;-73
2022/10/13 01:08:09;;;;;;;8.85;5.38;;;9.40;99.90;;;;;;5053925;28;20111;-73
2022/10/13 01:10:53;;;;;;;8.75;5.93;;;9.40;99.90;;;;;;5071518;28;20048;-73
2022/10/13 01:13:43;;;;;;;9.38;5.47;;;9.50;99.90;;;;;;5050720;28;20532;-73
2022/10/13 01:16:16;;;;;;;9.05;5.75;;;9.50;99.90;;;;;;5055235;28;20385;-74
2022/10/13 01:18:50;;;;;;;10.18;6.22;;;9.50;99.90;;;;;;5066272;28;20120;-72
2022/10/13 01:21:34;;;;;;;10.57;5.75;;;9.50;99.90;;;;;;5050715;28;20053;-73
2022/10/13 01:24:28;;;;;;;7.97;5.80;;;9.50;99.90;;;;;;5070603;28;20045;-73
2022/10/13 01:26:57;;;;;;;9.85;5.15;;;9.50;99.90;;;;;;5053005;28;20053;-73
2022/10/13 01:29:42;;;;;;;12.13;6.10;;;9.50;99.90;;;;;;5051853;28;20060;-73
2022/10/13 01:32:16;;;;;;;11.60;6.05;;;9.60;99.90;;;;;;5059452;28;20044;-73
2022/10/13 01:35:22;;;;;;;8.35;5.40;;;9.60;99.90;;;;;;5071408;28;20056;-73
2022/10/13 01:38:02;;;;;;;8.32;4.97;;;9.60;99.90;;;;;;5053741;28;20064;-73
2022/10/13 01:40:37;;;;;;;10.23;5.88;;;9.60;99.90;;;;;;5068688;28;20052;-73
2022/10/13 01:43:23;;;;;;;8.90;5.50;;;9.60;99.90;;;;;;5051330;28;20052;-74
2022/10/13 01:46:00;;;;;;;11.15;5.68;;;9.60;99.90;;;;;;5070207;28;20048;-74
2022/10/13 01:48:27;;;;;;;8.98;5.95;;;9.60;99.90;;;;;;5036306;28;20052;-73
2022/10/13 01:50:56;;;;;;;8.30;5.65;;;9.70;99.90;;;;;;5071526;28;20087;-73
2022/10/13 01:53:22;;;;;;;10.25;6.00;;;9.70;99.90;;;;;;5052739;28;20052;-73
2022/10/13 01:55:56;;;;;;;9.23;5.35;;;9.70;99.90;;;;;;5052624;28;20045;-73
2022/10/13 01:58:25;;;;;;;11.07;5.28;;;9.70;99.90;;;;;;5053621;28;20041;-73
2022/10/13 02:01:08;;;;;;;16.17;5.80;;;9.70;99.90;;;;;;5053387;28;20052;-73
2022/10/13 02:04:09;;;;;;;9.13;5.53;;;9.70;99.90;;;;;;5063186;28;20044;-73
2022/10/13 02:06:51;;;;;;;7.68;5.30;;;9.60;99.90;;;;;;5064011;28;20110;-72
2022/10/13 02:09:22;;;;;;;10.57;5.47;;;9.60;99.90;;;;;;5064631;28;20052;-73
2022/10/13 02:12:01;;;;;;;8.40;5.70;;;9.60;99.90;;;;;;5070587;28;20054;-73
2022/10/13 02:14:31;;;;;;;15.98;6.28;;;9.60;99.90;;;;;;5071063;28;20048;-73
2022/10/13 02:17:02;;;;;;;10.25;5.50;;;9.60;99.90;;;;;;5036183;28;20056;-73
2022/10/13 02:19:29;;;;;;;12.38;5.75;;;9.60;99.90;;;;;;5070899;28;20560;-72
2022/10/13 02:21:56;;;;;;;9.70;5.90;;;9.70;99.90;;;;;;5068092;28;20102;-73
2022/10/13 02:24:22;;;;;;;10.27;6.43;;;9.60;99.90;;;;;;5070817;28;20123;-73
2022/10/13 02:26:50;;;;;;;8.00;5.97;;;9.80;99.90;;;;;;5060702;28;20124;-73
2022/10/13 02:29:16;;;;;;;12.00;6.03;;;9.70;99.90;;;;;;5065071;28;20036;-73
2022/10/13 02:31:43;;;;;;;12.07;6.25;;;9.70;99.90;;;;;;5062609;28;20051;-72
2022/10/13 02:34:09;;;;;;;11.90;6.35;;;9.80;99.90;;;;;;5052944;28;20431;-73
2022/10/13 02:36:37;;;;;;;10.27;6.18;;;9.80;99.90;;;;;;5070508;28;20090;-73
2022/10/13 02:39:03;;;;;;;11.45;7.20;;;9.80;99.90;;;;;;5062992;28;20125;-73
2022/10/13 02:41:30;;;;;;;9.15;6.25;;;9.80;99.90;;;;;;5060300;28;20074;-73
2022/10/13 02:43:55;;;;;;;10.93;5.97;;;9.80;99.90;;;;;;5049298;28;20060;-73
2022/10/13 02:46:21;;;;;;;11.68;6.68;;;9.80;99.90;;;;;;5066086;28;20068;-74
2022/10/13 02:48:47;;;;;;;9.18;5.88;;;9.80;99.90;;;;;;5070311;28;20040;-73
2022/10/13 02:51:12;;;;;;;10.13;6.15;;;9.70;99.90;;;;;;5070715;28;20053;-73
2022/10/13 02:53:38;;;;;;;13.45;6.90;;;9.70;99.90;;;;;;5070332;28;20132;-73
2022/10/13 02:56:05;;;;;;;11.23;6.40;;;9.70;99.90;;;;;;5050031;28;20049;-73
2022/10/13 02:58:30;;;;;;;15.20;6.53;;;9.70;99.90;;;;;;5050452;28;20486;-73
2022/10/13 03:01:08;;;;;;;10.80;6.10;;;9.70;99.90;;;;;;5052819;28;20051;-73
2022/10/13 03:03:34;;;;;;;10.13;6.55;;;9.60;99.90;;;;;;5070378;28;20131;-73
2022/10/13 03:05:59;;;;;;;10.43;6.53;;;9.70;99.90;;;;;;5070586;28;20087;-73
2022/10/13 03:08:25;;;;;;;11.00;6.75;;;9.60;99.90;;;;;;5073200;28;20068;-73
2022/10/13 03:10:52;;;;;;;10.15;6.38;;;9.60;99.90;;;;;;5068739;28;20044;-73
2022/10/13 03:13:18;;;;;;;7.88;5.88;;;9.70;99.90;;;;;;5074142;28;20048;-72
2022/10/13 03:15:44;;;;;;;10.80;6.85;;;9.60;99.90;;;;;;5073853;28;20152;-73
2022/10/13 03:18:09;;;;;;;11.32;6.63;;;9.60;99.90;;;;;;5073767;28;20539;-73
2022/10/13 03:20:35;;;;;;;10.80;6.20;;;9.60;99.90;;;;;;5073950;28;20049;-73
2022/10/13 03:23:01;;;;;;;10.95;6.57;;;9.60;99.90;;;;;;5073886;28;20504;-73
2022/10/13 03:25:27;;;;;;;11.20;7.13;;;9.60;99.90;;;;;;5050333;28;20040;-73
2022/10/13 03:27:54;;;;;;;11.73;6.68;;;9.70;99.90;;;;;;5071147;28;20455;-73
2022/10/13 03:30:20;;;;;;;11.60;7.28;;;9.70;99.90;;;;;;5054862;28;20488;-73
2022/10/13 03:32:45;;;;;;;9.65;6.40;;;9.70;99.90;;;;;;5064555;28;20068;-73
2022/10/13 03:35:11;;;;;;;9.55;7.05;;;9.70;99.90;;;;;;5081463;28;20071;-73
2022/10/13 03:37:37;;;;;;;11.00;6.55;;;9.70;99.90;;;;;;5073303;28;20044;-73
2022/10/13 03:40:03;;;;;;;11.82;6.80;;;9.80;99.90;;;;;;5073537;28;20048;-73
2022/10/13 03:42:29;;;;;;;10.68;6.82;;;9.80;99.90;;;;;;5072236;28;20127;-73
2022/10/13 03:44:54;;;;;;;10.63;7.00;;;9.80;99.90;;;;;;5071027;28;20135;-73
2022/10/13 03:47:20;;;;;;;13.20;6.93;;;10.10;99.90;;;;;;5063529;28;20148;-73
2022/10/13 03:49:45;;;;;;;9.98;6.47;;;9.90;99.90;;;;;;5071845;28;20449;-73
2022/10/13 03:52:11;;;;;;;12.45;7.45;;;10.00;99.90;;;;;;5073243;28;20104;-73
2022/10/13 03:54:37;;;;;;;10.07;6.63;;;10.00;99.90;;;;;;5073214;28;20053;-73
2022/10/13 03:57:02;;;;;;;10.07;6.65;;;10.40;99.90;;;;;;5053359;28;20075;-74
2022/10/13 03:59:28;;;;;;;11.57;6.78;;;10.00;99.90;;;;;;5071020;28;20106;-73
2022/10/13 04:01:55;;;;;;;11.40;7.57;;;10.00;99.90;;;;;;5062888;28;20049;-73
2022/10/13 04:04:20;;;;;;;11.80;6.55;;;10.00;99.90;;;;;;5073155;28;20098;-74
2022/10/13 04:06:46;;;;;;;10.43;6.47;;;10.00;99.90;;;;;;5069900;28;20037;-73
2022/10/13 04:09:11;;;;;;;11.27;6.85;;;10.00;99.90;;;;;;5078760;28;20044;-74
2022/10/13 04:11:37;;;;;;;10.80;6.43;;;10.00;99.90;;;;;;5066053;28;20101;-74
2022/10/13 04:14:03;;;;;;;10.15;6.57;;;10.00;99.90;;;;;;5070369;28;20048;-74
2022/10/13 04:16:30;;;;;;;13.82;7.40;;;10.00;99.90;;;;;;5066122;28;20094;-74
2022/10/13 04:19:01;;;;;;;13.85;6.88;;;10.00;99.90;;;;;;5072084;28;20044;-74
2022/10/13 04:21:28;;;;;;;12.80;7.20;;;9.90;99.90;;;;;;5055487;28;20136;-74
2022/10/13 04:23:56;;;;;;;12.27;7.47;;;9.90;99.90;;;;;;5063766;28;20049;-74
2022/10/13 04:26:23;;;;;;;12.45;7.68;;;9.90;99.90;;;;;;5081459;28;20389;-74
2022/10/13 04:28:50;;;;;;;10.20;6.80;;;9.90;99.90;;;;;;5072759;28;20120;-74
2022/10/13 04:31:17;;;;;;;11.13;6.88;;;9.90;99.90;;;;;;5071160;28;20070;-73
2022/10/13 04:33:43;;;;;;;12.95;6.95;;;10.00;99.90;;;;;;5056370;28;20049;-74
2022/10/13 04:36:10;;;;;;;13.95;7.05;;;9.90;99.90;;;;;;5069093;28;20171;-73
2022/10/13 04:38:36;;;;;;;11.48;7.60;;;9.90;99.90;;;;;;5058116;28;20048;-73
2022/10/13 04:41:04;;;;;;;8.73;6.15;;;9.90;99.90;;;;;;5052008;28;20049;-73
2022/10/13 04:43:30;;;;;;;9.90;6.65;;;9.90;99.90;;;;;;5064851;28;20394;-73
2022/10/13 04:46:08;;;;;;;11.18;6.40;;;9.40;99.90;;;;;;5069900;28;20037;-73
2022/10/13 04:48:34;;;;;;;11.15;6.45;;;10.00;99.90;;;;;;5051579;28;20036;-73
2022/10/13 04:51:03;;;;;;;11.85;6.80;;;10.00;99.90;;;;;;5054440;28;20055;-73
2022/10/13 04:53:30;;;;;;;11.98;6.25;;;10.00;99.90;;;;;;5069966;28;20053;-73
2022/10/13 04:56:01;;;;;;;11.57;7.70;;;10.10;99.90;;;;;;5051388;28;20592;-73
2022/10/13 04:58:27;;;;;;;10.63;6.18;;;10.10;99.90;;;;;;5068418;28;20052;-73
2022/10/13 05:00:53;;;;;;;11.18;7.07;;;10.10;99.90;;;;;;5067395;28;20044;-73
2022/10/13 05:03:18;;;;;;;10.75;6.65;;;10.10;99.90;;;;;;5067065;28;20060;-73
2022/10/13 05:05:44;;;;;;;11.60;7.10;;;10.10;99.90;;;;;;5071882;28;20052;-73
2022/10/13 05:08:10;;;;;;;15.27;7.55;;;10.20;99.90;;;;;;5072069;28;20562;-72
2022/10/13 05:10:35;;;;;;;9.68;6.80;;;10.20;99.90;;;;;;5072850;28;20381;-73
2022/10/13 05:13:01;;;;;;;9.95;6.30;;;10.10;99.90;;;;;;5071828;28;20052;-74
2022/10/13 05:15:27;;;;;;;8.93;6.57;;;10.10;99.90;;;;;;5071627;28;20060;-74
2022/10/13 05:17:53;;;;;;;11.18;7.15;;;10.20;99.90;;;;;;5057435;28;20504;-74
2022/10/13 05:20:18;;;;;;;15.38;7.60;;;10.10;99.90;;;;;;5053704;28;20392;-74
2022/10/13 05:22:44;;;;;;;12.35;7.55;;;10.10;99.90;;;;;;5071586;28;20037;-74
2022/10/13 05:25:10;;;;;;;12.27;8.02;;;10.20;99.90;;;;;;5075740;28;20040;-73
2022/10/13 05:27:35;;;;;;;13.02;8.00;;;10.10;99.90;;;;;;5091903;28;20035;-74
2022/10/13 05:30:01;;;;;;;12.15;7.68;;;10.20;99.90;;;;;;5069311;28;20493;-73
2022/10/13 05:32:27;;;;;;;13.25;7.07;;;10.20;99.90;;;;;;5060401;28;20049;-73
2022/10/13 05:34:52;;;;;;;10.95;7.60;;;10.20;99.90;;;;;;5059980;28;20048;-74
2022/10/13 05:37:21;;;;;;;11.85;7.45;;;10.20;99.90;;;;;;5062888;28;20089;-73
2022/10/13 05:39:46;;;;;;;11.80;7.20;;;10.20;99.90;;;;;;5053928;28;20056;-74
2022/10/13 05:42:12;;;;;;;9.02;7.15;;;10.20;99.90;;;;;;5041656;28;20047;-74
2022/10/13 05:44:38;;;;;;;11.05;7.50;;;10.20;99.90;;;;;;5059564;28;20040;-73
2022/10/13 05:47:04;;;;;;;11.43;7.30;;;10.20;99.90;;;;;;5071149;28;20044;-73
2022/10/13 05:49:29;;;;;;;11.18;7.10;;;10.20;99.90;;;;;;5063518;28;20052;-73
2022/10/13 05:52:00;;;;;;;10.38;7.03;;;10.20;99.90;;;;;;5079585;28;20054;-73
2022/10/13 05:54:45;;;;;;;11.98;7.78;;;10.20;99.90;;;;;;5071514;28;20512;-74
2022/10/13 05:57:20;;;;;;;13.85;7.55;;;10.20;99.90;;;;;;5065164;28;20057;-73
2022/10/13 05:59:52;;;;;;;11.13;7.95;;;10.20;99.90;;;;;;5068882;28;20052;-74
2022/10/13 06:02:19;;;;;;;11.68;7.85;;;10.20;99.90;;;;;;5049706;28;20094;-74
2022/10/13 06:04:48;;;;;;;11.73;7.20;;;10.20;99.90;;;;;;5061624;28;20484;-74
2022/10/13 06:07:14;;;;;;;12.75;7.70;;;10.30;99.90;;;;;;5070913;28;20202;-74
2022/10/13 06:09:40;;;;;;;13.23;7.75;;;10.30;99.90;;;;;;5056549;28;20537;-73
2022/10/13 06:12:07;;;;;;;10.63;6.95;;;10.40;99.90;;;;;;5055288;28;20468;-74
2022/10/13 06:14:33;;;;;;;14.55;7.53;;;10.30;99.90;;;;;;5049732;28;20374;-73
2022/10/13 06:16:59;;;;;;;12.48;7.63;;;10.30;99.90;;;;;;5065345;28;20066;-66
2022/10/13 06:19:25;;;;;;;12.30;8.45;;;10.30;99.90;;;;;;5055294;28;20036;-64
2022/10/13 06:21:51;;;;;;;11.93;7.85;;;10.30;99.90;;;;;;5056197;28;20070;-65
2022/10/13 06:24:16;;;;;;;11.30;7.30;;;10.30;99.90;;;;;;5030134;28;20114;-64
2022/10/13 06:26:42;;;;;;;11.50;7.93;;;10.30;99.90;;;;;;5063830;28;20055;-64
2022/10/13 06:29:08;;;;;;;12.77;7.85;;;10.40;99.90;;;;;;5046232;28;20123;-64
2022/10/13 06:31:34;;;;;;;12.40;8.40;;;10.40;99.90;;;;;;5060554;28;20497;-64
2022/10/13 06:33:59;;;;;;;15.45;7.25;;;10.40;99.90;;;;;;5075785;28;20036;-64
2022/10/13 06:36:25;;;;;;;11.68;7.63;;;10.30;99.90;;;;;;5070783;28;20051;-64
2022/10/13 06:38:51;;;;;;;12.15;7.90;;;10.40;99.90;;;;;;5061226;28;20481;-64
2022/10/13 06:41:17;;;;;;;11.27;7.32;;;10.40;99.90;;;;;;5062605;28;20053;-64
2022/10/13 06:43:43;;;;;;;14.48;7.78;;;10.40;99.90;;;;;;5074538;28;20044;-64
2022/10/13 06:46:09;;;;;;;14.52;8.77;;;10.40;99.90;;;;;;5074625;28;20109;-65
2022/10/13 06:48:35;;;;;;;10.30;7.00;;;10.40;99.90;;;;;;5074548;28;20115;-64
2022/10/13 06:51:03;;;;;;;13.48;8.35;;;10.40;99.90;;;;;;5074037;28;20132;-64
2022/10/13 06:53:29;;;;;;;11.88;7.35;;;10.50;99.90;;;;;;5074380;28;20044;-64
2022/10/13 06:55:59;;;;;;;13.90;7.90;;;10.50;99.90;;;;;;5074685;28;20045;-64
2022/10/13 06:58:25;;;;;;;14.00;8.18;;;10.50;99.90;;;;;;5074447;28;20040;-64
2022/10/13 07:00:51;;;;;;;12.23;8.90;;;10.50;99.90;;;;;;5074101;28;20047;-65
2022/10/13 07:03:17;;;;;;;13.18;8.20;;;10.50;99.90;;;;;;5074020;28;20135;-64
2022/10/13 07:05:42;;;;;;;13.45;8.50;;;10.60;99.90;;;;;;5074094;28;20055;-64
2022/10/13 07:08:08;;;;;;;17.08;9.35;;;10.60;99.90;;;;;;5077668;28;20056;-64
2022/10/13 07:10:36;;;;;;;13.20;8.90;;;10.60;99.90;;;;;;5082360;28;20053;-64
2022/10/13 07:13:02;;;;;;;13.68;9.30;;;10.60;99.90;;;;;;5065262;28;20060;-63
2022/10/13 07:15:28;;;;;;;13.82;9.20;;;10.70;99.90;;;;;;5067980;28;20056;-64
2022/10/13 07:17:54;;;;;;;11.38;8.23;;;10.70;99.90;;;;;;5072807;28;20400;-64
2022/10/13 07:20:21;;;;;;;13.50;9.10;;;10.70;99.90;;;;;;5082373;28;20039;-64
2022/10/13 07:22:46;;;;;;;14.35;9.13;;;10.80;99.90;;;;;;5069759;28;20045;-65
2022/10/13 07:25:12;;;;;;;13.60;8.73;;;10.80;99.90;;;;;;5063752;28;20381;-64
2022/10/13 07:27:39;;;;;;;15.40;9.15;;;10.80;99.90;;;;;;5071709;28;20132;-64
2022/10/13 07:30:07;;;;;;;13.25;8.90;;;10.90;99.90;;;;;;5068201;28;20079;-64
2022/10/13 07:32:33;;;;;;;14.88;8.40;;;10.90;99.90;;;;;;5070985;28;20044;-64
2022/10/13 07:34:59;;;;;;;15.10;8.95;;;10.90;99.90;;;;;;5082139;28;20048;-64
2022/10/13 07:37:25;;;;;;;14.27;9.50;;;11.00;99.90;;;;;;5079742;28;20441;-64
2022/10/13 07:39:51;;;;;;;13.45;8.15;;;11.00;99.90;;;;;;5084699;28;20507;-66
2022/10/13 07:42:17;;;;;;;13.38;8.95;;;11.00;99.90;;;;;;5093163;28;20053;-66
2022/10/13 07:44:43;;;;;;;13.90;8.85;;;11.10;99.90;;;;;;5082658;28;20047;-67
2022/10/13 07:47:09;;;;;;;13.10;8.98;;;11.10;99.90;;;;;;5093163;28;20052;-63
2022/10/13 07:49:34;;;;;;;13.55;8.98;;;11.10;99.90;;;;;;5092792;28;20123;-66
2022/10/13 07:52:00;;;;;;;12.40;8.68;;;11.20;99.90;;;;;;5083040;28;20048;-64
2022/10/13 07:54:26;;;;;;;13.82;9.18;;;11.20;99.90;;;;;;5090625;28;20507;-64
2022/10/13 07:56:53;;;;;;;17.13;10.13;;;11.20;99.90;;;;;;5092820;28;20126;-65
2022/10/13 07:59:18;;;;;;;12.85;8.40;;;11.30;99.90;;;;;;5092957;28;20046;-64
2022/10/13 08:01:44;;;;;;;16.52;9.65;;;11.30;99.90;;;;;;5074798;28;20048;-64
2022/10/13 08:04:10;;;;;;;14.65;9.77;;;11.40;99.90;;;;;;5085734;28;20044;-65
2022/10/13 08:06:35;;;;;;;17.20;9.65;;;11.50;99.90;;;;;;5077024;28;20449;-64
2022/10/13 08:09:03;;;;;;;15.02;9.25;;;11.70;99.90;;;;;;5077139;28;20406;-64
2022/10/13 08:11:29;;;;;;;14.50;8.70;;;11.80;99.90;;;;;;5087100;28;20066;-64
2022/10/13 08:13:59;;;;;;;14.23;9.20;;;11.90;99.90;;;;;;5070497;28;20040;-64
2022/10/13 08:16:28;;;;;;;12.75;9.05;;;12.10;99.90;;;;;;5092494;28;20117;-64
2022/10/13 08:18:55;;;;;;;14.63;8.52;;;12.10;99.90;;;;;;5092349;28;20508;-64
2022/10/13 08:21:23;;;;;;;13.25;8.73;;;12.10;99.90;;;;;;5092517;28;20044;-64
2022/10/13 08:23:49;;;;;;;13.05;9.30;;;12.20;99.90;;;;;;5074196;28;20055;-64
2022/10/13 08:26:20;;;;;;;14.20;8.32;;;12.20;99.90;;;;;;5083339;28;20488;-64
2022/10/13 08:28:46;;;;;;;12.93;9.70;;;12.30;99.90;;;;;;5092458;28;20101;-64
2022/10/13 08:31:11;;;;;;;14.52;9.02;;;12.40;99.90;;;;;;5089442;28;20075;-64
2022/10/13 08:33:37;;;;;;;15.07;9.88;;;12.40;99.90;;;;;;5079887;28;20831;-64
2022/10/13 08:36:03;;;;;;;14.70;9.60;;;12.50;99.90;;;;;;5083657;28;20044;-64
2022/10/13 08:38:29;;;;;;;13.63;9.75;;;12.50;99.90;;;;;;5081263;28;20763;-64
2022/10/13 08:40:55;;;;;;;13.75;9.68;;;12.50;99.90;;;;;;5078161;28;20040;-64
2022/10/13 08:43:23;;;;;;;14.02;9.07;;;12.50;99.90;;;;;;5082550;28;20048;-65
2022/10/13 08:45:57;;;;;;;12.95;9.18;;;12.50;99.90;;;;;;5083469;28;20052;-64
2022/10/13 08:48:37;;;;;;;11.63;8.48;;;12.60;99.90;;;;;;5086308;28;20047;-64
2022/10/13 08:51:06;;;;;;;12.35;8.35;;;12.60;99.90;;;;;;5092148;28;20044;-64
2022/10/13 08:53:39;;;;;;;14.32;9.05;;;12.50;99.90;;;;;;5073887;28;20115;-64
2022/10/13 08:56:30;;;;;;;14.95;9.48;;;12.50;99.90;;;;;;5071109;28;20036;-64
2022/10/13 08:58:55;;;;;;;14.48;10.25;;;12.60;99.90;;;;;;5088025;28;20048;-65
2022/10/13 09:01:28;;;;;;;14.40;9.80;;;12.60;99.90;;;;;;5091860;28;20040;-64
2022/10/13 09:03:54;;;;;;;14.32;9.48;;;12.70;99.90;;;;;;5082220;28;20044;-64
2022/10/13 09:06:27;;;;;;;14.32;9.18;;;12.70;99.90;;;;;;5089950;28;20046;-64
2022/10/13 09:08:58;;;;;;;13.70;8.75;;;12.70;99.90;;;;;;5082961;28;20484;-65
2022/10/13 09:11:32;;;;;;;12.75;8.90;;;12.60;99.90;;;;;;5063263;28;20588;-65
2022/10/13 09:14:01;;;;;;;14.70;9.73;;;12.70;99.90;;;;;;5086787;28;20048;-65
2022/10/13 09:16:36;;;;;;;12.30;9.40;;;12.60;99.90;;;;;;5077183;28;20086;-65
2022/10/13 09:19:24;;;;;;;14.88;9.15;;;12.70;99.90;;;;;;5091774;28;20040;-64
2022/10/13 09:22:11;;;;;;;14.77;10.02;;;12.70;99.90;;;;;;5074145;28;20059;-64
2022/10/13 09:24:36;;;;;;;13.98;9.80;;;12.70;99.90;;;;;;5061513;28;20048;-64
2022/10/13 09:27:10;;;;;;;14.93;10.02;;;12.80;99.90;;;;;;5090860;28;20399;-64
2022/10/13 09:29:36;;;;;;;14.75;10.32;;;12.90;99.90;;;;;;5091609;28;20039;-65
2022/10/13 09:32:24;;;;;;;16.40;10.60;;;12.90;99.90;;;;;;5080913;28;20040;-64
2022/10/13 09:34:51;;;;;;;15.13;10.23;;;13.00;99.90;;;;;;5090518;28;20361;-64
2022/10/13 09:37:24;;;;;;;14.73;9.65;;;13.10;99.90;;;;;;5069475;28;20119;-64
2022/10/13 09:40:29;;;;;;;13.07;9.93;;;13.10;99.90;;;;;;5064584;28;20082;-65
2022/10/13 09:42:56;;;;;;;16.15;9.68;;;13.10;99.90;;;;;;4978946;28;20046;-64
2022/10/13 09:45:24;;;;;;;13.75;9.18;;;13.10;99.90;;;;;;5046946;28;20393;-65
2022/10/13 09:47:54;;;;;;;13.52;9.60;;;13.10;99.90;;;;;;5060029;28;20041;-65
2022/10/13 09:50:24;;;;;;;16.83;9.45;;;13.20;99.90;;;;;;5069640;28;20040;-65
2022/10/13 09:52:50;;;;;;;15.95;9.60;;;13.20;99.90;;;;;;5073562;28;20064;-65
2022/10/13 09:55:28;;;;;;;13.73;9.13;;;13.20;99.90;;;;;;5073718;28;20051;-65
2022/10/13 09:57:58;;;;;;;13.20;9.60;;;13.30;99.90;;;;;;5075009;28;20079;-65
2022/10/13 10:00:27;;;;;;;12.82;9.18;;;13.30;99.90;;;;;;5078213;28;20079;-65
2022/10/13 10:03:03;;;;;;;13.43;10.02;;;13.30;99.90;;;;;;5078057;28;20075;-65
2022/10/13 10:05:44;;;;;;;14.82;9.40;;;13.40;99.90;;;;;;5074219;28;20052;-66
2022/10/13 10:08:22;;;;;;;14.43;9.88;;;13.40;99.90;;;;;;5066273;28;20032;-66
2022/10/13 10:10:48;;;;;;;16.75;10.18;;;13.40;99.90;;;;;;5059484;28;20052;-66
2022/10/13 10:13:14;;;;;;;13.43;8.93;;;13.40;99.90;;;;;;5057290;28;20045;-66
2022/10/13 10:16:02;;;;;;;15.95;10.20;;;13.40;99.90;;;;;;5068554;28;20488;-66
2022/10/13 10:18:57;;;;;;;13.73;8.82;;;13.50;99.90;;;;;;5070290;28;20474;-65
2022/10/13 10:21:45;;;;;;;15.38;9.60;;;13.60;99.90;;;;;;5052792;28;20041;-65
2022/10/13 10:24:23;;;;;;;13.27;8.48;;;13.60;99.90;;;;;;5070706;28;20055;-65
2022/10/13 10:27:12;;;;;;;12.75;9.02;;;13.60;99.90;;;;;;5052106;28;20509;-65
2022/10/13 10:29:53;;;;;;;14.18;9.75;;;13.60;99.90;;;;;;5052508;28;20048;-65
2022/10/13 10:32:28;;;;;;;13.98;9.23;;;13.60;99.90;;;;;;5067415;28;20457;-66
2022/10/13 10:35:25;;;;;;;15.27;9.50;;;13.60;99.90;;;;;;5053493;28;20045;-65
2022/10/13 10:38:01;;;;;;;14.15;9.25;;;13.60;99.90;;;;;;5071848;28;20139;-65
2022/10/13 10:40:27;;;;;;;;;;;13.60;99.90;;;;;;5077498;28;20047;-66
2022/10/13 10:42:58;;;;;;;16.93;10.30;;;13.60;99.90;;;;;;5076790;28;19928;-64
2022/10/13 10:45:27;;;;;;;12.38;9.93;;;13.60;99.90;;;;;;5063882;28;20414;-65
2022/10/13 10:48:00;;;;;;;15.88;10.30;;;13.60;99.90;;;;;;5065793;28;20475;-65
2022/10/13 10:50:29;;;;;;;16.77;10.73;;;13.70;99.90;;;;;;5075952;28;20090;-65
2022/10/13 10:53:03;;;;;;;14.13;10.43;;;13.90;99.90;;;;;;5077955;28;20154;-65
2022/10/13 10:55:32;;;;;;;14.68;10.00;;;14.00;99.90;;;;;;5081499;28;20499;-64
2022/10/13 10:58:12;;;;;;;14.18;10.27;;;14.00;99.90;;;;;;5071571;28;20043;-65
2022/10/13 11:00:50;;;;;;;15.90;11.40;;;14.00;99.90;;;;;;5071265;28;20545;-65
2022/10/13 11:03:41;;;;;;;16.60;10.60;;;14.00;99.90;;;;;;5076619;28;20490;-65
2022/10/13 11:06:15;;;;;;;14.43;10.52;;;14.10;99.90;;;;;;5082598;28;20097;-65
2022/10/13 11:08:45;;;;;;;17.35;11.00;;;14.10;99.90;;;;;;5067679;28;20087;-65
2022/10/13 11:11:29;;;;;;;17.27;11.48;;;14.20;99.90;;;;;;5066668;28;20044;-65
2022/10/13 11:14:25;;;;;;;14.02;11.00;;;14.30;99.90;;;;;;5070113;28;20373;-64
2022/10/13 11:17:04;;;;;;;18.43;10.67;;;14.30;99.90;;;;;;5071885;28;20484;-64
2022/10/13 11:19:33;;;;;;;15.30;10.32;;;14.30;99.90;;;;;;5063170;28;20162;-64
2022/10/13 11:21:58;;;;;;;14.95;10.70;;;14.30;99.90;;;;;;5073770;28;20036;-64
2022/10/13 11:24:49;;;;;;;13.23;9.80;;;14.20;99.90;;;;;;5077501;28;20076;-64
2022/10/13 11:27:14;;;;;;;13.77;10.55;;;14.20;99.90;;;;;;5070079;28;20070;-64
2022/10/13 11:29:43;;;;;;;15.20;10.40;;;14.10;99.90;;;;;;5080599;28;20468;-64
2022/10/13 11:32:29;;;;;;;16.63;10.95;;;14.00;99.90;;;;;;5085637;28;20078;-64
2022/10/13 11:35:21;;;;;;;15.88;10.85;;;14.00;99.90;;;;;;5072768;28;20045;-63
2022/10/13 11:37:56;;;;;;;18.83;10.52;;;14.00;99.90;;;;;;5077803;28;20486;-64
2022/10/13 11:40:31;;;;;;;14.80;10.63;;;13.90;99.90;;;;;;5079052;28;20040;-63
2022/10/13 11:43:31;;;;;;;15.43;11.03;;;13.90;99.90;;;;;;5076482;28;20127;-65
2022/10/13 11:46:15;;;;;;;15.88;11.18;;;13.80;99.90;;;;;;5081070;28;20610;-65
2022/10/13 11:49:06;;;;;;;14.48;11.57;;;13.80;99.90;;;;;;5081021;28;20036;-65
2022/10/13 11:51:56;;;;;;;17.48;11.10;;;13.80;99.90;;;;;;5077613;28;20048;-65
2022/10/13 11:54:53;;;;;;;16.17;10.88;;;13.70;99.90;;;;;;5079148;28;20498;-65
2022/10/13 11:57:26;;;;;;;17.00;12.32;;;13.70;99.90;;;;;;5064943;28;20262;-65
2022/10/13 11:59:54;;;;;;;14.32;11.18;;;13.60;99.90;;;;;;5078397;28;20047;-65
2022/10/13 12:02:23;;;;;;;19.08;12.45;;;13.60;99.90;;;;;;5082956;28;20483;-65
2022/10/13 12:05:37;;;;;;;19.95;11.65;;;13.60;99.90;;;;;;5080809;28;20168;-65
2022/10/13 12:08:03;;;;;;;16.52;11.60;;;13.60;99.90;;;;;;5069788;28;20064;-65
2022/10/13 12:10:30;;;;;;;16.90;11.30;;;13.50;99.90;;;;;;5080029;28;20097;-65
2022/10/13 12:12:57;;;;;;;15.27;11.77;;;13.50;99.90;;;;;;5082264;28;20071;-65
2022/10/13 12:15:39;;;;;;;19.25;11.60;;;13.40;99.90;;;;;;5077731;28;20044;-65
2022/10/13 12:18:33;;;;;;;17.27;11.18;;;13.50;99.90;;;;;;5073227;28;20397;-65
2022/10/13 12:21:09;;;;;;;17.80;12.02;;;13.50;99.90;;;;;;5060980;28;20091;-64
2022/10/13 12:23:35;;;;;;;15.15;11.32;;;13.50;99.90;;;;;;5060508;28;20071;-65
2022/10/13 12:26:01;;;;;;;18.35;11.85;;;13.40;99.90;;;;;;5051907;28;20044;-64
2022/10/13 12:28:57;;;;;;;15.60;11.65;;;13.40;99.90;;;;;;5068123;28;20511;-64
2022/10/13 12:31:29;;;;;;;14.80;11.30;;;13.40;99.90;;;;;;5062847;28;20061;-66
2022/10/13 12:33:56;;;;;;;17.20;11.68;;;13.40;99.90;;;;;;5061279;28;20153;-65
2022/10/13 12:36:34;;;;;;;18.05;12.00;;;13.40;99.90;;;;;;5064315;28;20090;-65
2022/10/13 12:39:11;;;;;;;16.35;11.68;;;13.40;99.90;;;;;;5061381;28;20048;-65
2022/10/13 12:41:41;;;;;;;16.70;11.85;;;13.50;99.90;;;;;;5069467;28;20075;-65
2022/10/13 12:44:18;;;;;;;18.83;11.68;;;13.50;99.90;;;;;;5071250;28;20084;-64
2022/10/13 12:46:46;;;;;;;19.05;12.00;;;13.50;99.90;;;;;;5046515;28;20053;-66
2022/10/13 12:49:16;;;;;;;16.88;11.43;;;13.50;99.90;;;;;;4125524;28;10000649;-63
2022/10/13 12:51:51;;;;;;;18.98;12.18;;;13.50;99.90;;;;;;5007037;28;20045;-65
2022/10/13 12:54:18;;;;;;;16.23;12.32;;;13.50;99.90;;;;;;5012105;28;20128;-65
2022/10/13 12:56:44;;;;;;;17.83;13.18;;;13.50;99.90;;;;;;5012938;28;20049;-64
2022/10/13 12:59:16;;;;;;;21.60;12.88;;;13.60;99.90;;;;;;5012802;28;20038;-64